Time;durP1;ratioP1;P1;durP2;ratioP2;P2;SDS_P1;SDS_P2;PMS_P1;PMS_P2;Temp;Humidity;BMP_temperature;BMP_pressure;BME280_temperature;BME280_humidity;BME280_pressure;Samples;Min_cycle;Max_cycle;Signal;HPM_P1;HPM_P2
2022/01/21 00:01:32;;;;;;;1.42;0.50;;;21.30;33.50;;;;;;5075495;28;20389;-70
2022/01/21 00:03:58;;;;;;;1.75;0.70;;;21.30;33.40;;;;;;5075129;28;20414;-72
2022/01/21 00:06:24;;;;;;;2.40;0.63;;;21.30;33.30;;;;;;5076627;28;20825;-72
2022/01/21 00:08:53;;;;;;;2.20;0.73;;;21.30;33.20;;;;;;5110615;28;20386;-72
2022/01/21 00:11:20;;;;;;;1.10;0.57;;;21.20;33.20;;;;;;5094569;28;20467;-72
2022/01/21 00:13:46;;;;;;;1.40;0.67;;;21.20;33.30;;;;;;5076315;28;20378;-73
2022/01/21 00:16:13;;;;;;;1.65;0.60;;;21.30;33.30;;;;;;5094615;28;20386;-72
2022/01/21 00:18:42;;;;;;;1.20;0.65;;;21.30;33.30;;;;;;5076447;28;20901;-71
2022/01/21 00:32:07;;;;;;;1.13;0.65;;;21.20;33.10;;;;;;5094523;28;20381;-71
2022/01/21 00:34:33;;;;;;;1.58;0.70;;;21.20;32.90;;;;;;5076272;28;20392;-71
2022/01/21 00:36:59;;;;;;;2.03;0.70;;;21.20;32.80;;;;;;5093744;28;20477;-71
2022/01/21 00:39:28;;;;;;;1.60;0.60;;;21.20;33.50;;;;;;5094260;28;20386;-71
2022/01/21 00:42:13;;;;;;;2.00;0.70;;;21.20;32.80;;;;;;5094146;28;20397;-71
2022/01/21 00:44:39;;;;;;;1.40;0.50;;;21.20;32.90;;;;;;5094106;28;20452;-71
2022/01/21 00:47:06;;;;;;;1.48;0.60;;;21.20;32.90;;;;;;5093601;28;20752;-71
2022/01/21 00:49:32;;;;;;;1.45;0.60;;;21.10;32.90;;;;;;5094012;28;20405;-71
2022/01/21 00:51:58;;;;;;;1.00;0.50;;;21.20;32.80;;;;;;5093889;28;20386;-71
2022/01/21 00:54:23;;;;;;;1.20;0.55;;;21.20;32.90;;;;;;5094026;28;20385;-71
2022/01/21 00:56:49;;;;;;;2.07;0.70;;;21.20;32.90;;;;;;5093976;28;20936;-71
2022/01/21 00:59:15;;;;;;;1.45;0.50;;;21.10;32.60;;;;;;5109116;28;20398;-71
2022/01/21 01:01:41;;;;;;;1.65;0.63;;;21.10;32.70;;;;;;5093876;28;20739;-71
2022/01/21 01:04:07;;;;;;;1.27;0.50;;;21.10;32.70;;;;;;5093367;28;20847;-71
2022/01/21 01:06:33;;;;;;;1.40;0.60;;;21.10;32.70;;;;;;5093200;28;20406;-70
2022/01/21 01:08:58;;;;;;;1.38;0.60;;;21.10;32.40;;;;;;5093290;28;20390;-70
2022/01/21 01:22:06;;;;;;;2.10;0.70;;;21.00;32.30;;;;;;5092492;28;20909;-71
2022/01/21 01:27:41;;;;;;;1.73;0.70;;;21.00;32.20;;;;;;5090434;28;20936;-71
2022/01/21 01:30:11;;;;;;;1.10;0.57;;;21.00;32.20;;;;;;5092240;28;20392;-71
2022/01/21 01:32:38;;;;;;;1.57;0.60;;;21.00;32.30;;;;;;5074645;28;20402;-71
2022/01/21 01:35:04;;;;;;;1.33;0.60;;;21.00;32.10;;;;;;5092509;28;20473;-71
2022/01/21 01:40:13;;;;;;;1.45;0.60;;;21.00;32.10;;;;;;5093238;28;20741;-71
2022/01/21 01:50:54;;;;;;;1.50;0.60;;;21.00;32.20;;;;;;5092836;28;20475;-71
2022/01/21 01:53:28;;;;;;;1.65;0.60;;;21.00;32.20;;;;;;5092216;28;20382;-71
2022/01/21 01:55:55;;;;;;;1.70;0.70;;;21.00;32.20;;;;;;5092539;28;20389;-71
2022/01/21 01:58:22;;;;;;;1.70;0.50;;;21.00;32.10;;;;;;5092763;28;20394;-70
2022/01/21 02:00:47;;;;;;;1.30;0.60;;;21.00;32.00;;;;;;5092781;28;20451;-70
2022/01/21 02:03:15;;;;;;;1.50;0.70;;;21.00;32.10;;;;;;5092277;28;20768;-71
2022/01/21 02:05:41;;;;;;;1.60;0.68;;;20.90;32.10;;;;;;5092520;28;20510;-70
2022/01/21 02:08:07;;;;;;;1.10;0.50;;;21.00;32.10;;;;;;5092548;28;20390;-70
2022/01/21 02:10:34;;;;;;;1.40;0.60;;;20.90;32.00;;;;;;5092527;28;20400;-70
2022/01/21 02:13:05;;;;;;;1.50;0.70;;;20.90;32.10;;;;;;5074104;28;20431;-71
2022/01/21 02:15:37;;;;;;;1.30;0.57;;;20.90;32.10;;;;;;5092432;28;20386;-70
2022/01/21 02:23:31;;;;;;;1.60;0.70;;;20.90;32.10;;;;;;5092333;28;20405;-70
2022/01/21 02:25:57;;;;;;;1.70;0.60;;;20.90;32.00;;;;;;5092191;28;20876;-70
2022/01/21 02:28:23;;;;;;;1.70;0.50;;;20.90;32.10;;;;;;5092235;28;20448;-70
2022/01/21 02:30:53;;;;;;;1.13;0.50;;;20.90;32.20;;;;;;5092192;28;20390;-71
2022/01/21 02:33:19;;;;;;;1.50;0.50;;;20.90;32.10;;;;;;5091720;28;20452;-71
2022/01/21 02:35:45;;;;;;;1.50;0.60;;;20.90;31.90;;;;;;5092156;28;20411;-70
2022/01/21 02:38:11;;;;;;;1.60;0.73;;;20.90;32.10;;;;;;5073870;28;20390;-70
2022/01/21 02:40:36;;;;;;;1.10;0.50;;;20.90;32.00;;;;;;5092035;28;20878;-70
2022/01/21 02:43:03;;;;;;;2.20;0.70;;;20.90;31.90;;;;;;5073548;28;20398;-70
2022/01/21 02:45:29;;;;;;;1.15;0.63;;;20.90;32.10;;;;;;5091855;28;20414;-70
2022/01/21 02:47:54;;;;;;;1.30;0.65;;;20.90;31.90;;;;;;5091715;28;20443;-70
2022/01/21 02:50:20;;;;;;;2.10;0.70;;;20.90;32.00;;;;;;5091925;28;20911;-70
2022/01/21 02:53:08;;;;;;;1.55;0.73;;;20.80;31.80;;;;;;5091867;28;20419;-70
2022/01/21 02:55:34;;;;;;;1.75;0.80;;;20.90;31.80;;;;;;5091810;28;20782;-70
2022/01/21 02:57:59;;;;;;;1.40;0.70;;;20.90;31.70;;;;;;5091756;28;20392;-70
2022/01/21 03:00:25;;;;;;;1.40;0.60;;;20.90;31.90;;;;;;5091705;28;20401;-71
2022/01/21 03:02:51;;;;;;;1.70;0.70;;;20.90;31.80;;;;;;5091568;28;20469;-70
2022/01/21 03:05:18;;;;;;;1.17;0.50;;;20.80;31.90;;;;;;5090567;28;20413;-70
2022/01/21 03:07:44;;;;;;;1.63;0.55;;;20.80;31.80;;;;;;5091395;28;20401;-70
2022/01/21 03:10:11;;;;;;;1.38;0.70;;;20.90;31.90;;;;;;5091539;28;20981;-70
2022/01/21 03:12:37;;;;;;;1.35;0.68;;;20.80;31.80;;;;;;5091707;28;20400;-70
2022/01/21 03:15:04;;;;;;;1.03;0.50;;;20.90;31.80;;;;;;5091285;28;20393;-70
2022/01/21 03:17:29;;;;;;;1.40;0.60;;;20.80;31.80;;;;;;5073543;28;20394;-70
2022/01/21 03:19:55;;;;;;;1.17;0.60;;;20.80;31.70;;;;;;5091423;28;20895;-71
2022/01/21 03:22:21;;;;;;;1.50;0.70;;;20.80;31.70;;;;;;5091509;28;20435;-71
2022/01/21 03:24:46;;;;;;;1.10;0.60;;;20.80;31.80;;;;;;5091332;28;20451;-70
2022/01/21 03:27:12;;;;;;;1.50;0.70;;;20.80;31.90;;;;;;5090996;28;20397;-71
2022/01/21 03:29:38;;;;;;;1.10;0.60;;;20.80;31.80;;;;;;5091423;28;20452;-70
2022/01/21 03:32:04;;;;;;;1.25;0.60;;;20.80;31.80;;;;;;5091413;28;20393;-70
2022/01/21 03:34:29;;;;;;;1.60;0.60;;;20.80;31.80;;;;;;5091425;28;20382;-70
2022/01/21 03:36:55;;;;;;;1.40;0.70;;;20.80;31.80;;;;;;5091301;28;20381;-70
2022/01/21 03:39:21;;;;;;;1.45;0.70;;;20.80;31.60;;;;;;5090967;28;20378;-70
2022/01/21 03:41:47;;;;;;;2.20;0.60;;;20.70;31.70;;;;;;5091346;28;20938;-70
2022/01/21 03:44:12;;;;;;;1.52;0.50;;;20.80;31.70;;;;;;5091185;28;20412;-70
2022/01/21 03:46:38;;;;;;;1.13;0.50;;;20.80;31.70;;;;;;5091232;28;20474;-70
2022/01/21 03:49:06;;;;;;;1.23;0.55;;;20.80;31.60;;;;;;5090913;28;20409;-71
2022/01/21 03:51:32;;;;;;;1.45;0.60;;;20.70;31.60;;;;;;5091185;28;20477;-70
2022/01/21 03:53:58;;;;;;;1.52;0.70;;;20.80;31.70;;;;;;5091145;28;20420;-70
2022/01/21 03:56:23;;;;;;;1.20;0.50;;;20.70;31.60;;;;;;5091192;28;20473;-70
2022/01/21 03:58:49;;;;;;;1.88;0.65;;;20.70;31.50;;;;;;5073123;28;20390;-70
2022/01/21 04:01:15;;;;;;;1.10;0.53;;;20.70;31.60;;;;;;5090653;28;20382;-70
2022/01/21 04:03:40;;;;;;;1.45;0.50;;;20.70;31.60;;;;;;5091108;28;20802;-70
2022/01/21 04:06:06;;;;;;;1.30;0.50;;;20.70;31.50;;;;;;5090960;28;20422;-70
2022/01/21 04:08:32;;;;;;;3.38;0.70;;;20.70;31.30;;;;;;5072787;28;20390;-70
2022/01/21 04:10:58;;;;;;;3.50;0.90;;;20.80;32.20;;;;;;5091328;28;20386;-70
2022/01/21 04:13:25;;;;;;;3.72;1.15;;;20.90;31.70;;;;;;5092533;28;20474;-70
2022/01/21 04:15:54;;;;;;;2.17;1.20;;;21.00;32.60;;;;;;5093242;28;20387;-71
2022/01/21 04:18:20;;;;;;;2.30;1.10;;;21.00;32.40;;;;;;5095905;28;20459;-71
2022/01/21 04:20:47;;;;;;;4.43;0.85;;;20.90;32.70;;;;;;5095835;28;20383;-71
2022/01/21 04:23:16;;;;;;;2.53;0.77;;;20.90;33.10;;;;;;5094307;28;20460;-71
2022/01/21 04:25:42;;;;;;;3.17;0.85;;;21.00;33.40;;;;;;5076243;28;20410;-71
2022/01/21 04:28:08;;;;;;;5.65;1.00;;;20.90;33.40;;;;;;5094151;28;20455;-71
2022/01/21 04:30:34;;;;;;;4.73;1.00;;;20.90;33.50;;;;;;5095073;28;20465;-71
2022/01/21 04:33:01;;;;;;;3.83;1.10;;;20.90;33.50;;;;;;5094303;28;20402;-71
2022/01/21 04:35:27;;;;;;;3.13;0.93;;;20.90;33.00;;;;;;5093886;28;20382;-71
2022/01/21 04:37:56;;;;;;;5.17;1.10;;;20.90;33.50;;;;;;5077498;28;20390;-71
2022/01/21 04:40:27;;;;;;;3.10;0.80;;;21.00;33.50;;;;;;5094452;28;20397;-71
2022/01/21 04:48:21;;;;;;;3.47;0.70;;;21.20;34.10;;;;;;5095111;28;20490;-71
2022/01/21 04:51:26;;;;;;;5.05;0.88;;;21.20;33.90;;;;;;5094939;28;20488;-71
2022/01/21 04:53:41;;;;;;;2.28;0.80;;;21.20;33.90;;;;;;5092619;28;20418;-71
2022/01/21 04:56:07;;;;;;;3.55;0.85;;;21.20;34.00;;;;;;5095004;28;20934;-71
2022/01/21 04:58:32;;;;;;;3.22;0.77;;;21.20;34.30;;;;;;5094106;28;20413;-71
2022/01/21 05:01:03;;;;;;;2.15;0.70;;;21.20;34.30;;;;;;5093864;28;20408;-72
2022/01/21 05:03:28;;;;;;;6.40;0.80;;;21.20;34.20;;;;;;5093721;28;20392;-72
2022/01/21 05:05:54;;;;;;;3.60;0.80;;;21.20;33.80;;;;;;5093570;28;20891;-71
2022/01/21 05:08:42;;;;;;;3.22;0.80;;;21.20;34.10;;;;;;5093648;28;20415;-71
2022/01/21 05:11:09;;;;;;;2.35;0.82;;;21.20;34.00;;;;;;5093270;28;20390;-71
2022/01/21 05:13:40;;;;;;;2.58;0.70;;;21.20;34.20;;;;;;5093436;28;20390;-71
2022/01/21 05:17:00;;;;;;;2.22;0.70;;;21.10;34.00;;;;;;5093118;28;20390;-71
2022/01/21 05:18:52;;;;;;;1.20;0.57;;;21.10;33.70;;;;;;5078403;28;20858;-71
2022/01/21 05:21:18;;;;;;;1.37;0.70;;;21.20;33.70;;;;;;5092939;28;20402;-70
2022/01/21 05:23:43;;;;;;;4.80;0.90;;;21.20;33.60;;;;;;5093387;28;20863;-71
2022/01/21 05:26:10;;;;;;;2.73;0.77;;;21.20;33.60;;;;;;5093249;28;20421;-70
2022/01/21 05:28:36;;;;;;;2.27;0.73;;;21.10;33.70;;;;;;5092533;28;20389;-69
2022/01/21 05:31:02;;;;;;;3.83;0.70;;;21.10;33.20;;;;;;5093645;28;20826;-70
2022/01/21 05:33:27;;;;;;;2.73;0.70;;;21.00;33.00;;;;;;5078313;28;20758;-71
2022/01/21 05:35:53;;;;;;;2.28;0.80;;;20.90;33.10;;;;;;5105812;28;20863;-70
2022/01/21 05:38:19;;;;;;;2.10;0.60;;;21.00;33.30;;;;;;5104037;28;20757;-70
2022/01/21 05:40:46;;;;;;;3.20;0.80;;;21.00;33.10;;;;;;5098494;28;20390;-70
2022/01/21 05:43:12;;;;;;;2.40;0.75;;;20.90;33.20;;;;;;5092655;28;20929;-71
2022/01/21 05:48:22;;;;;;;1.52;0.60;;;20.90;32.90;;;;;;5092909;28;20404;-71
2022/01/21 05:50:48;;;;;;;1.75;0.63;;;20.90;32.80;;;;;;5092951;28;20390;-70
2022/01/21 05:53:13;;;;;;;2.10;0.60;;;20.90;32.70;;;;;;5092456;28;20386;-71
2022/01/21 05:55:42;;;;;;;4.78;1.00;;;20.90;32.70;;;;;;5092231;28;20382;-70
2022/01/21 05:58:10;;;;;;;4.47;0.80;;;20.90;34.10;;;;;;5092599;28;20421;-70
2022/01/21 06:00:36;;;;;;;3.23;0.70;;;21.00;34.10;;;;;;5092096;28;20390;-72
2022/01/21 06:03:05;;;;;;;5.10;1.38;;;21.10;34.40;;;;;;5091423;28;20743;-70
2022/01/21 06:05:33;;;;;;;5.35;2.40;;;21.20;34.80;;;;;;5090957;28;20531;-70
2022/01/21 06:08:04;;;;;;;3.72;1.90;;;21.20;36.00;;;;;;5091184;28;20867;-70
2022/01/21 06:10:30;;;;;;;3.78;1.67;;;21.30;36.10;;;;;;5091181;28;20744;-70
2022/01/21 06:12:56;;;;;;;3.63;1.50;;;21.30;35.50;;;;;;5091669;28;20891;-70
2022/01/21 06:15:23;;;;;;;3.10;1.50;;;21.30;35.50;;;;;;5073220;28;20401;-70
2022/01/21 06:17:48;;;;;;;3.42;1.30;;;21.30;35.80;;;;;;5092138;28;20398;-70
2022/01/21 06:20:14;;;;;;;3.60;1.30;;;21.20;35.00;;;;;;5072849;28;20386;-70
2022/01/21 06:22:40;;;;;;;3.00;1.20;;;21.20;34.40;;;;;;5091771;28;20473;-70
2022/01/21 06:25:05;;;;;;;3.77;1.10;;;21.20;34.90;;;;;;5094488;28;20554;-70
2022/01/21 06:27:32;;;;;;;3.50;1.02;;;21.20;35.00;;;;;;5111970;28;20395;-70
2022/01/21 06:29:57;;;;;;;3.38;1.20;;;21.20;34.20;;;;;;5102012;28;20477;-70
2022/01/21 06:32:25;;;;;;;4.15;1.20;;;21.20;35.00;;;;;;5072930;28;20862;-70
2022/01/21 06:34:51;;;;;;;3.58;1.20;;;21.20;35.00;;;;;;5090150;28;20435;-71
2022/01/21 06:37:17;;;;;;;2.30;0.90;;;21.20;35.00;;;;;;5072248;28;21212;-71
2022/01/21 06:39:43;;;;;;;2.93;0.90;;;21.20;34.90;;;;;;5090331;28;20377;-70
2022/01/21 06:42:09;;;;;;;2.50;0.90;;;21.20;34.90;;;;;;5071921;28;20394;-70
2022/01/21 06:44:34;;;;;;;2.70;1.10;;;21.20;34.50;;;;;;5090194;28;20389;-70
2022/01/21 06:47:00;;;;;;;3.13;1.10;;;21.20;34.40;;;;;;5090244;28;20437;-70
2022/01/21 06:49:25;;;;;;;2.80;0.90;;;21.10;34.30;;;;;;5095371;28;20402;-70
2022/01/21 06:51:51;;;;;;;3.43;1.00;;;21.10;34.20;;;;;;5090592;28;20469;-71
2022/01/21 06:54:17;;;;;;;3.30;0.90;;;21.10;34.20;;;;;;5091675;28;20461;-71
2022/01/21 06:56:42;;;;;;;1.90;0.80;;;21.00;33.80;;;;;;5091598;28;20382;-71
2022/01/21 06:59:08;;;;;;;1.60;0.90;;;21.00;33.60;;;;;;5091257;28;20472;-71
2022/01/21 07:01:34;;;;;;;3.13;1.00;;;21.00;33.60;;;;;;5091195;28;20481;-70
2022/01/21 07:04:00;;;;;;;2.13;0.80;;;21.00;33.20;;;;;;5090499;28;20393;-71
2022/01/21 07:06:26;;;;;;;1.98;0.90;;;21.00;33.40;;;;;;5091082;28;20417;-71
2022/01/21 07:08:51;;;;;;;2.20;0.90;;;21.00;33.70;;;;;;5091229;28;20383;-71
2022/01/21 07:11:17;;;;;;;1.83;1.00;;;21.00;33.50;;;;;;5090631;28;20390;-70
2022/01/21 07:13:43;;;;;;;1.83;0.90;;;21.00;33.20;;;;;;5090842;28;20382;-72
2022/01/21 07:16:08;;;;;;;1.50;0.80;;;21.00;33.10;;;;;;5091561;28;20425;-72
2022/01/21 07:18:34;;;;;;;1.50;0.70;;;21.00;33.20;;;;;;5091656;28;20755;-71
2022/01/21 07:21:00;;;;;;;2.28;0.90;;;21.00;33.10;;;;;;5091316;28;20896;-72
2022/01/21 07:23:25;;;;;;;2.00;0.73;;;21.00;33.00;;;;;;5087739;28;20392;-71
2022/01/21 07:25:51;;;;;;;1.60;0.68;;;21.00;33.00;;;;;;5090112;28;21414;-70
2022/01/21 07:28:17;;;;;;;2.13;0.80;;;21.00;32.90;;;;;;5091340;28;20794;-70
2022/01/21 07:30:42;;;;;;;2.53;0.75;;;21.00;32.80;;;;;;5072652;28;20493;-70
2022/01/21 07:33:08;;;;;;;1.42;0.63;;;21.00;32.70;;;;;;5073245;28;20394;-71
2022/01/21 07:35:34;;;;;;;2.07;0.80;;;21.00;32.30;;;;;;5090483;28;20455;-71
2022/01/21 07:38:01;;;;;;;2.10;0.80;;;21.00;32.50;;;;;;5090851;28;20386;-71
2022/01/21 07:40:27;;;;;;;1.88;0.80;;;21.00;32.30;;;;;;5088254;28;20394;-71
2022/01/21 07:42:53;;;;;;;3.00;0.90;;;20.90;32.30;;;;;;5088941;28;20430;-70
2022/01/21 07:45:19;;;;;;;1.30;0.80;;;21.00;32.40;;;;;;5090337;28;20402;-72
2022/01/21 07:47:44;;;;;;;1.67;0.80;;;21.00;32.50;;;;;;5090623;28;20424;-70
2022/01/21 07:50:10;;;;;;;1.97;0.90;;;21.00;33.10;;;;;;5090611;28;20389;-71
2022/01/21 07:52:36;;;;;;;1.80;0.80;;;21.00;32.40;;;;;;5092377;28;20465;-71
2022/01/21 07:55:02;;;;;;;1.37;0.80;;;21.00;32.40;;;;;;5076777;28;20398;-72
2022/01/21 07:57:27;;;;;;;1.90;0.93;;;21.00;32.30;;;;;;5094363;28;20429;-70
2022/01/21 07:59:53;;;;;;;2.90;0.80;;;21.00;32.30;;;;;;5094570;28;20729;-70
2022/01/21 08:02:19;;;;;;;1.77;0.73;;;20.90;32.10;;;;;;5094683;28;20393;-70
2022/01/21 08:04:45;;;;;;;1.30;0.70;;;21.00;32.10;;;;;;5094713;28;20382;-71
2022/01/21 08:07:11;;;;;;;1.80;0.80;;;21.00;32.10;;;;;;5094431;28;20446;-71
2022/01/21 08:09:37;;;;;;;1.55;0.82;;;21.00;32.10;;;;;;5094274;28;20421;-71
2022/01/21 08:12:03;;;;;;;1.75;0.98;;;20.90;31.90;;;;;;5094253;28;20860;-71
2022/01/21 08:14:29;;;;;;;2.40;0.98;;;20.90;31.70;;;;;;5094341;28;20389;-71
2022/01/21 08:16:55;;;;;;;1.60;0.90;;;20.90;31.70;;;;;;5093791;28;20390;-70
2022/01/21 08:19:21;;;;;;;1.55;0.80;;;20.90;31.80;;;;;;5093584;28;20392;-72
2022/01/21 08:21:47;;;;;;;1.65;0.80;;;20.90;31.80;;;;;;5075922;28;20435;-70
2022/01/21 08:24:12;;;;;;;2.20;0.90;;;20.90;31.70;;;;;;5075963;28;20477;-71
2022/01/21 08:26:39;;;;;;;1.70;0.98;;;20.90;31.60;;;;;;5094215;28;20506;-71
2022/01/21 08:29:06;;;;;;;1.70;0.70;;;20.90;32.10;;;;;;5094110;28;20378;-71
2022/01/21 08:31:33;;;;;;;1.75;0.70;;;20.90;31.60;;;;;;5093604;28;20390;-70
2022/01/21 08:33:58;;;;;;;2.40;0.90;;;20.90;31.50;;;;;;5075814;28;20390;-70
2022/01/21 08:36:25;;;;;;;1.55;0.75;;;20.90;31.40;;;;;;5094078;28;20397;-70
2022/01/21 08:38:52;;;;;;;1.88;0.85;;;20.90;31.30;;;;;;5094031;28;20721;-73
2022/01/21 08:41:18;;;;;;;1.48;0.88;;;20.90;31.60;;;;;;5093787;28;20422;-71
2022/01/21 08:43:44;;;;;;;1.77;0.70;;;20.90;31.60;;;;;;5074649;28;20397;-71
2022/01/21 08:46:10;;;;;;;1.92;0.82;;;20.90;31.40;;;;;;5087730;28;21036;-71
2022/01/21 08:48:36;;;;;;;1.57;0.70;;;20.90;31.60;;;;;;5093531;28;20515;-71
2022/01/21 08:51:08;;;;;;;1.48;0.85;;;20.90;31.70;;;;;;5077206;28;20447;-72
2022/01/21 08:53:38;;;;;;;1.92;0.90;;;20.90;31.70;;;;;;5092586;28;20867;-71
2022/01/21 08:56:15;;;;;;;2.20;0.80;;;20.90;31.60;;;;;;5091173;28;20493;-72
2022/01/21 08:58:45;;;;;;;1.55;0.70;;;20.90;31.60;;;;;;5091726;28;20405;-70
2022/01/21 09:01:12;;;;;;;2.15;0.82;;;20.80;31.70;;;;;;5071058;28;20493;-70
2022/01/21 09:03:39;;;;;;;1.40;0.73;;;20.80;31.70;;;;;;5090748;28;20404;-73
2022/01/21 09:06:05;;;;;;;1.40;0.80;;;20.80;31.60;;;;;;5092052;28;20501;-71
2022/01/21 09:08:31;;;;;;;1.90;0.80;;;20.80;31.60;;;;;;5093260;28;20386;-70
2022/01/21 09:10:59;;;;;;;1.35;0.70;;;20.80;31.60;;;;;;5092888;28;20747;-70
2022/01/21 09:13:27;;;;;;;1.67;0.90;;;20.80;31.70;;;;;;5092856;28;20863;-71
2022/01/21 09:15:58;;;;;;;1.80;0.90;;;20.80;31.70;;;;;;5092745;28;20875;-70
2022/01/21 09:18:25;;;;;;;2.88;1.35;;;20.70;31.80;;;;;;5093072;28;20951;-70
2022/01/21 09:20:51;;;;;;;3.63;1.50;;;20.80;32.80;;;;;;5093307;28;20816;-70
2022/01/21 09:23:17;;;;;;;2.90;1.17;;;20.80;32.50;;;;;;5092333;28;20910;-70
2022/01/21 09:25:46;;;;;;;3.90;2.10;;;20.90;32.30;;;;;;5092750;28;20413;-71
2022/01/21 09:28:12;;;;;;;4.20;2.30;;;20.90;33.20;;;;;;5091846;28;20382;-71
2022/01/21 09:30:38;;;;;;;5.50;2.13;;;20.90;33.70;;;;;;5088749;28;20396;-72
2022/01/21 09:33:04;;;;;;;4.35;1.67;;;20.90;33.40;;;;;;5091152;28;20465;-71
2022/01/21 09:35:31;;;;;;;3.80;1.30;;;20.90;33.30;;;;;;5091245;28;20378;-71
2022/01/21 09:37:57;;;;;;;3.38;1.48;;;20.90;32.90;;;;;;5091491;28;20378;-71
2022/01/21 09:40:32;;;;;;;2.47;1.40;;;20.90;32.70;;;;;;5091770;28;20439;-71
2022/01/21 09:42:58;;;;;;;2.50;1.20;;;20.90;32.70;;;;;;5091225;28;20381;-71
2022/01/21 09:45:25;;;;;;;2.57;1.30;;;20.90;32.60;;;;;;5072496;28;21115;-71
2022/01/21 09:47:54;;;;;;;3.20;1.60;;;20.90;32.40;;;;;;5072676;28;20444;-71
2022/01/21 09:50:22;;;;;;;2.78;1.20;;;20.90;32.40;;;;;;5089132;28;20438;-71
2022/01/21 09:52:50;;;;;;;3.67;1.30;;;20.90;32.10;;;;;;5091159;28;20451;-71
2022/01/21 09:55:20;;;;;;;2.83;1.10;;;20.90;31.90;;;;;;5072682;28;20386;-71
2022/01/21 09:57:47;;;;;;;2.80;1.00;;;20.90;31.80;;;;;;5090961;28;20843;-71
2022/01/21 10:00:15;;;;;;;3.22;1.20;;;20.80;31.60;;;;;;5090541;28;20456;-71
2022/01/21 10:02:45;;;;;;;2.85;1.17;;;20.90;32.20;;;;;;5090847;28;20425;-71
2022/01/21 10:05:11;;;;;;;2.80;0.98;;;20.90;31.60;;;;;;5090800;28;20842;-71
2022/01/21 10:07:40;;;;;;;2.47;1.00;;;20.90;31.60;;;;;;5072678;28;20771;-72
2022/01/21 10:10:08;;;;;;;3.63;1.13;;;20.90;31.70;;;;;;5090549;28;20382;-72
2022/01/21 10:12:35;;;;;;;2.95;1.00;;;20.80;31.80;;;;;;5091021;28;20382;-71
2022/01/21 10:15:03;;;;;;;2.90;1.08;;;20.90;32.10;;;;;;5072667;28;20386;-71
2022/01/21 10:17:29;;;;;;;3.88;1.10;;;20.90;32.20;;;;;;5090704;28;20401;-71
2022/01/21 10:20:16;;;;;;;2.08;0.93;;;20.90;32.40;;;;;;5090856;28;20433;-72
2022/01/21 10:23:00;;;;;;;1.88;0.95;;;20.90;32.20;;;;;;5090827;28;20384;-71
2022/01/21 10:25:27;;;;;;;2.13;0.90;;;20.90;31.90;;;;;;5088814;28;20483;-71
2022/01/21 10:28:15;;;;;;;2.40;0.93;;;20.90;31.90;;;;;;5090655;28;20461;-70
2022/01/21 10:30:42;;;;;;;2.33;0.90;;;20.90;31.80;;;;;;5088452;28;20375;-71
2022/01/21 10:33:20;;;;;;;2.47;0.70;;;20.90;31.60;;;;;;5090909;28;20382;-71
2022/01/21 10:35:50;;;;;;;3.22;0.95;;;20.90;31.80;;;;;;5090394;28;20394;-71
2022/01/21 10:38:24;;;;;;;1.90;1.00;;;20.80;31.40;;;;;;5091012;28;20421;-71
2022/01/21 10:40:51;;;;;;;2.47;0.88;;;20.80;31.40;;;;;;5090895;28;20378;-71
2022/01/21 10:43:18;;;;;;;1.50;0.82;;;20.80;31.30;;;;;;5090736;28;20481;-71
2022/01/21 10:45:56;;;;;;;2.08;0.90;;;20.80;31.20;;;;;;5090126;28;20438;-71
2022/01/21 10:48:22;;;;;;;1.77;0.80;;;20.80;31.10;;;;;;5087729;28;20414;-71
2022/01/21 10:51:24;;;;;;;1.85;0.80;;;20.80;31.00;;;;;;5090200;28;20393;-71
2022/01/21 10:53:50;;;;;;;2.17;1.00;;;20.80;31.00;;;;;;5068799;28;20422;-71
2022/01/21 10:56:18;;;;;;;1.50;0.98;;;20.80;31.00;;;;;;5090000;28;20386;-71
2022/01/21 10:58:54;;;;;;;2.60;1.00;;;20.80;30.90;;;;;;5072086;28;20387;-71
2022/01/21 11:01:26;;;;;;;2.05;0.98;;;20.80;31.00;;;;;;5087605;28;20851;-71
2022/01/21 11:04:11;;;;;;;2.08;0.90;;;20.80;30.70;;;;;;5090462;28;20851;-71
2022/01/21 11:06:56;;;;;;;2.00;0.82;;;20.80;30.90;;;;;;5071827;28;20444;-71
2022/01/21 11:09:24;;;;;;;1.73;0.80;;;20.80;30.90;;;;;;5088074;28;20376;-70
2022/01/21 11:12:09;;;;;;;2.58;0.93;;;20.70;30.90;;;;;;5090010;28;20887;-70
2022/01/21 11:14:35;;;;;;;2.20;0.90;;;20.70;30.90;;;;;;5089814;28;20378;-70
2022/01/21 11:17:15;;;;;;;2.38;0.90;;;20.70;30.90;;;;;;5089910;28;20397;-70
2022/01/21 11:20:03;;;;;;;2.22;1.00;;;20.40;30.70;;;;;;5087158;28;20386;-70
2022/01/21 11:22:29;;;;;;;2.53;1.00;;;20.70;30.70;;;;;;5068182;28;20476;-70
2022/01/21 11:24:59;;;;;;;1.77;0.80;;;20.70;30.60;;;;;;5090295;28;20398;-71
2022/01/21 11:27:25;;;;;;;1.63;0.90;;;20.70;30.60;;;;;;5091196;28;20408;-71
2022/01/21 11:29:53;;;;;;;1.63;1.00;;;20.70;30.50;;;;;;5094395;28;20385;-70
2022/01/21 11:32:19;;;;;;;1.52;0.88;;;20.70;30.50;;;;;;5091556;28;20382;-71
2022/01/21 11:34:46;;;;;;;3.25;0.90;;;20.70;30.50;;;;;;5094192;28;20381;-70
2022/01/21 11:37:12;;;;;;;1.70;0.70;;;20.70;30.50;;;;;;5093763;28;20476;-71
2022/01/21 11:39:39;;;;;;;1.95;0.98;;;20.70;30.40;;;;;;5093402;28;20473;-70
2022/01/21 11:42:07;;;;;;;1.88;0.98;;;20.70;30.70;;;;;;5091610;28;20427;-71
2022/01/21 11:44:37;;;;;;;1.92;1.00;;;20.70;30.60;;;;;;5085849;28;20397;-70
2022/01/21 11:47:28;;;;;;;1.70;0.77;;;20.80;30.70;;;;;;5076483;28;20943;-70
2022/01/21 11:49:58;;;;;;;4.38;1.30;;;20.80;30.40;;;;;;5093107;28;20764;-71
2022/01/21 11:52:24;;;;;;;3.38;1.05;;;20.80;30.00;;;;;;5075474;28;20899;-70
2022/01/21 11:54:50;;;;;;;3.30;1.02;;;20.80;30.90;;;;;;5093885;28;20374;-69
2022/01/21 11:57:29;;;;;;;2.50;1.00;;;20.90;30.50;;;;;;5093545;28;20463;-70
2022/01/21 12:00:04;;;;;;;3.63;1.90;;;20.90;30.50;;;;;;5088045;28;20401;-70
2022/01/21 12:02:33;;;;;;;2.85;1.35;;;20.90;31.10;;;;;;5094264;28;20382;-71
2022/01/21 12:05:07;;;;;;;2.97;1.63;;;21.00;30.70;;;;;;5085622;28;20435;-71
2022/01/21 12:07:33;;;;;;;3.97;1.52;;;20.90;30.80;;;;;;5093023;28;20394;-71
2022/01/21 12:10:07;;;;;;;2.88;1.60;;;20.90;30.80;;;;;;5093701;28;20397;-70
2022/01/21 12:12:45;;;;;;;3.22;1.50;;;20.80;31.10;;;;;;5093002;28;20404;-70
2022/01/21 12:20:48;;;;;;;2.65;1.30;;;20.70;31.40;;;;;;5086919;27;20409;-71
2022/01/21 12:23:19;;;;;;;3.25;1.27;;;20.70;31.90;;;;;;5092722;28;20485;-70
2022/01/21 12:26:19;;;;;;;4.78;1.30;;;20.80;32.50;;;;;;5092764;28;20405;-70
2022/01/21 12:29:07;;;;;;;2.70;1.50;;;20.80;32.70;;;;;;5091199;28;20390;-71
2022/01/21 12:31:41;;;;;;;3.60;1.77;;;20.80;33.10;;;;;;5085784;28;21231;-70
2022/01/21 12:34:12;;;;;;;3.60;1.90;;;20.90;32.50;;;;;;5088192;28;20871;-71
2022/01/21 12:37:05;;;;;;;3.45;1.90;;;20.90;32.40;;;;;;5093386;28;20713;-71
2022/01/21 12:39:48;;;;;;;4.47;2.10;;;21.00;36.10;;;;;;5074535;28;20402;-71
2022/01/21 12:42:24;;;;;;;4.68;2.10;;;21.10;35.70;;;;;;5093569;28;20382;-70
2022/01/21 12:44:52;;;;;;;3.70;1.92;;;21.20;36.00;;;;;;5094016;28;20436;-71
2022/01/21 12:47:31;;;;;;;4.25;2.30;;;21.20;35.20;;;;;;5090415;28;20454;-71
2022/01/21 12:50:05;;;;;;;3.97;2.15;;;21.20;35.20;;;;;;5067090;28;20390;-71
2022/01/21 12:52:53;;;;;;;4.40;2.15;;;21.20;35.20;;;;;;5065106;28;20500;-72
2022/01/21 12:58:20;;;;;;;5.70;2.25;;;21.20;34.90;;;;;;5092385;28;20405;-71
2022/01/21 13:00:46;;;;;;;4.78;2.20;;;21.10;34.70;;;;;;5074857;28;20397;-71
2022/01/21 13:03:24;;;;;;;4.50;2.20;;;21.20;34.00;;;;;;5102776;28;20394;-72
2022/01/21 13:06:19;;;;;;;3.85;2.10;;;21.20;33.50;;;;;;5074141;28;20980;-73
2022/01/21 13:09:07;;;;;;;4.25;1.83;;;21.20;33.30;;;;;;5059854;28;20876;-73
2022/01/21 13:11:35;;;;;;;4.38;2.03;;;21.20;33.30;;;;;;5099589;28;20401;-70
2022/01/21 13:17:09;;;;;;;3.92;2.00;;;21.20;32.80;;;;;;5092220;28;20736;-71
2022/01/21 13:19:46;;;;;;;2.97;1.90;;;21.20;32.70;;;;;;5068983;28;20451;-71
2022/01/21 13:22:22;;;;;;;2.95;1.92;;;21.20;32.50;;;;;;5073698;28;20515;-71
2022/01/21 13:24:57;;;;;;;5.47;2.00;;;21.20;32.30;;;;;;5073749;28;20946;-71
2022/01/21 13:27:23;;;;;;;5.80;1.90;;;21.20;32.20;;;;;;5072234;28;20417;-71
2022/01/21 13:29:51;;;;;;;3.33;1.90;;;21.20;32.30;;;;;;5073607;28;20511;-71
2022/01/21 13:32:23;;;;;;;3.50;1.90;;;21.20;32.30;;;;;;5083065;27;21095;-71
2022/01/21 13:34:48;;;;;;;5.10;2.10;;;21.20;32.40;;;;;;5073964;28;20405;-71
2022/01/21 13:37:18;;;;;;;4.47;1.92;;;21.30;32.40;;;;;;5079406;28;20416;-72
2022/01/21 13:39:46;;;;;;;3.63;2.00;;;21.30;32.30;;;;;;5062939;28;20394;-72
2022/01/21 13:42:17;;;;;;;3.72;1.85;;;21.30;32.00;;;;;;5074060;28;20886;-71
2022/01/21 13:44:49;;;;;;;3.25;1.77;;;21.30;31.90;;;;;;5073236;28;20390;-71
2022/01/21 13:47:39;;;;;;;3.15;1.70;;;21.30;31.90;;;;;;5071356;28;20425;-71
2022/01/21 13:50:22;;;;;;;2.55;1.60;;;21.30;31.90;;;;;;5067519;28;20394;-71
2022/01/21 13:52:53;;;;;;;4.20;1.90;;;21.30;31.80;;;;;;5071703;28;20386;-72
2022/01/21 13:55:28;;;;;;;4.35;1.63;;;21.40;31.70;;;;;;5072603;28;20390;-71
2022/01/21 13:57:59;;;;;;;2.63;1.45;;;21.30;31.30;;;;;;5073217;28;20710;-71